sensor_id;sensor_type;location;lat;lon;timestamp;temperature;humidity
35240;DHT22;21376;50.954;4.716;2022-08-19T00:01:33;18.40;99.90
35240;DHT22;21376;50.954;4.716;2022-08-19T00:04:02;18.40;99.90
35240;DHT22;21376;50.954;4.716;2022-08-19T00:06:36;18.50;99.90
35240;DHT22;21376;50.954;4.716;2022-08-19T00:09:05;18.30;99.90
35240;DHT22;21376;50.954;4.716;2022-08-19T00:11:32;18.40;99.90
35240;DHT22;21376;50.954;4.716;2022-08-19T00:14:04;18.30;99.90
35240;DHT22;21376;50.954;4.716;2022-08-19T00:16:34;18.30;99.90
35240;DHT22;21376;50.954;4.716;2022-08-19T00:19:07;18.30;99.90
35240;DHT22;21376;50.954;4.716;2022-08-19T00:21:33;18.10;99.90
35240;DHT22;21376;50.954;4.716;2022-08-19T00:24:09;18.20;99.90
35240;DHT22;21376;50.954;4.716;2022-08-19T00:26:39;18.30;99.90
35240;DHT22;21376;50.954;4.716;2022-08-19T00:29:09;18.30;99.90
35240;DHT22;21376;50.954;4.716;2022-08-19T00:31:35;18.30;99.90
35240;DHT22;21376;50.954;4.716;2022-08-19T00:34:01;18.30;99.90
35240;DHT22;21376;50.954;4.716;2022-08-19T00:36:31;18.30;99.90
35240;DHT22;21376;50.954;4.716;2022-08-19T00:39:18;18.10;99.90
35240;DHT22;21376;50.954;4.716;2022-08-19T00:41:47;18.20;99.90
35240;DHT22;21376;50.954;4.716;2022-08-19T00:44:19;18.20;99.90
35240;DHT22;21376;50.954;4.716;2022-08-19T00:46:48;18.20;99.90
35240;DHT22;21376;50.954;4.716;2022-08-19T00:49:22;18.30;99.90
35240;DHT22;21376;50.954;4.716;2022-08-19T00:51:55;18.30;99.90
35240;DHT22;21376;50.954;4.716;2022-08-19T00:54:21;18.20;99.90
35240;DHT22;21376;50.954;4.716;2022-08-19T00:56:48;18.30;99.90
35240;DHT22;21376;50.954;4.716;2022-08-19T00:59:18;18.20;99.90
35240;DHT22;21376;50.954;4.716;2022-08-19T01:01:45;18.20;99.90
35240;DHT22;21376;50.954;4.716;2022-08-19T01:04:12;18.10;99.90
35240;DHT22;21376;50.954;4.716;2022-08-19T01:06:39;18.30;99.90
35240;DHT22;21376;50.954;4.716;2022-08-19T01:09:07;18.30;99.90
35240;DHT22;21376;50.954;4.716;2022-08-19T01:11:36;18.30;99.90
35240;DHT22;21376;50.954;4.716;2022-08-19T01:14:06;18.30;99.90
35240;DHT22;21376;50.954;4.716;2022-08-19T01:16:34;18.30;99.90
35240;DHT22;21376;50.954;4.716;2022-08-19T01:19:02;18.30;99.90
35240;DHT22;21376;50.954;4.716;2022-08-19T01:21:41;18.20;99.90
35240;DHT22;21376;50.954;4.716;2022-08-19T01:24:09;18.10;99.90
35240;DHT22;21376;50.954;4.716;2022-08-19T01:26:42;18.20;99.90
35240;DHT22;21376;50.954;4.716;2022-08-19T01:29:08;18.20;99.90
35240;DHT22;21376;50.954;4.716;2022-08-19T01:31:37;18.20;99.90
35240;DHT22;21376;50.954;4.716;2022-08-19T01:34:05;18.20;99.90
35240;DHT22;21376;50.954;4.716;2022-08-19T01:36:36;18.10;99.90
35240;DHT22;21376;50.954;4.716;2022-08-19T01:39:06;18.10;99.90
35240;DHT22;21376;50.954;4.716;2022-08-19T01:41:32;18.10;99.90
35240;DHT22;21376;50.954;4.716;2022-08-19T01:44:00;18.10;99.90
35240;DHT22;21376;50.954;4.716;2022-08-19T01:46:31;18.00;99.90
35240;DHT22;21376;50.954;4.716;2022-08-19T01:49:04;18.00;99.90
35240;DHT22;21376;50.954;4.716;2022-08-19T01:51:31;18.00;99.90
35240;DHT22;21376;50.954;4.716;2022-08-19T01:53:57;18.00;99.90
35240;DHT22;21376;50.954;4.716;2022-08-19T01:56:27;18.00;99.90
35240;DHT22;21376;50.954;4.716;2022-08-19T01:59:00;18.00;99.90
35240;DHT22;21376;50.954;4.716;2022-08-19T02:01:27;18.00;99.90
35240;DHT22;21376;50.954;4.716;2022-08-19T02:03:57;18.00;99.90
35240;DHT22;21376;50.954;4.716;2022-08-19T02:06:24;18.00;99.90
35240;DHT22;21376;50.954;4.716;2022-08-19T02:08:50;17.90;99.90
35240;DHT22;21376;50.954;4.716;2022-08-19T02:11:22;17.90;99.90
35240;DHT22;21376;50.954;4.716;2022-08-19T02:13:50;17.80;99.90
35240;DHT22;21376;50.954;4.716;2022-08-19T02:16:17;17.80;99.90
35240;DHT22;21376;50.954;4.716;2022-08-19T02:18:44;17.80;99.90
35240;DHT22;21376;50.954;4.716;2022-08-19T02:21:11;17.80;99.90
35240;DHT22;21376;50.954;4.716;2022-08-19T02:23:37;17.80;99.90
35240;DHT22;21376;50.954;4.716;2022-08-19T02:26:05;17.70;99.90
35240;DHT22;21376;50.954;4.716;2022-08-19T02:28:32;17.70;99.90
35240;DHT22;21376;50.954;4.716;2022-08-19T02:30:59;17.70;99.90
35240;DHT22;21376;50.954;4.716;2022-08-19T02:33:26;17.70;99.90
35240;DHT22;21376;50.954;4.716;2022-08-19T02:35:52;17.70;99.90
35240;DHT22;21376;50.954;4.716;2022-08-19T02:38:24;17.60;99.90
35240;DHT22;21376;50.954;4.716;2022-08-19T02:41:07;17.50;99.90
35240;DHT22;21376;50.954;4.716;2022-08-19T02:43:36;17.50;99.90
35240;DHT22;21376;50.954;4.716;2022-08-19T02:46:26;17.40;99.90
35240;DHT22;21376;50.954;4.716;2022-08-19T02:48:55;17.40;99.90
35240;DHT22;21376;50.954;4.716;2022-08-19T02:51:30;17.30;99.90
35240;DHT22;21376;50.954;4.716;2022-08-19T02:53:57;17.20;99.90
35240;DHT22;21376;50.954;4.716;2022-08-19T02:56:24;17.20;99.90
35240;DHT22;21376;50.954;4.716;2022-08-19T02:58:55;17.10;99.90
35240;DHT22;21376;50.954;4.716;2022-08-19T03:01:30;17.10;99.90
35240;DHT22;21376;50.954;4.716;2022-08-19T03:03:57;17.00;99.90
35240;DHT22;21376;50.954;4.716;2022-08-19T03:06:23;17.00;99.90
35240;DHT22;21376;50.954;4.716;2022-08-19T03:08:51;17.00;99.90
35240;DHT22;21376;50.954;4.716;2022-08-19T03:11:31;16.90;99.90
35240;DHT22;21376;50.954;4.716;2022-08-19T03:14:02;16.90;99.90
35240;DHT22;21376;50.954;4.716;2022-08-19T03:16:33;16.90;99.90
35240;DHT22;21376;50.954;4.716;2022-08-19T03:19:00;16.90;99.90
35240;DHT22;21376;50.954;4.716;2022-08-19T03:21:29;16.90;99.90
35240;DHT22;21376;50.954;4.716;2022-08-19T03:24:03;16.80;99.90
35240;DHT22;21376;50.954;4.716;2022-08-19T03:26:29;16.80;99.90
35240;DHT22;21376;50.954;4.716;2022-08-19T03:28:56;16.70;99.90
35240;DHT22;21376;50.954;4.716;2022-08-19T03:31:23;16.70;99.90
35240;DHT22;21376;50.954;4.716;2022-08-19T03:33:51;16.60;99.90
35240;DHT22;21376;50.954;4.716;2022-08-19T03:36:19;16.60;99.90
35240;DHT22;21376;50.954;4.716;2022-08-19T03:38:53;16.60;99.90
35240;DHT22;21376;50.954;4.716;2022-08-19T03:41:23;16.70;99.90
35240;DHT22;21376;50.954;4.716;2022-08-19T03:43:52;16.60;99.90
35240;DHT22;21376;50.954;4.716;2022-08-19T03:46:22;16.60;99.90
35240;DHT22;21376;50.954;4.716;2022-08-19T03:49:01;16.60;99.90
35240;DHT22;21376;50.954;4.716;2022-08-19T03:51:32;16.60;99.90
35240;DHT22;21376;50.954;4.716;2022-08-19T03:54:00;16.50;99.90
35240;DHT22;21376;50.954;4.716;2022-08-19T03:56:30;16.50;99.90
35240;DHT22;21376;50.954;4.716;2022-08-19T03:58:57;16.50;99.90
35240;DHT22;21376;50.954;4.716;2022-08-19T04:01:27;16.50;99.90
35240;DHT22;21376;50.954;4.716;2022-08-19T04:03:58;16.50;99.90
35240;DHT22;21376;50.954;4.716;2022-08-19T04:06:30;16.40;99.90
35240;DHT22;21376;50.954;4.716;2022-08-19T04:08:59;16.40;99.90
35240;DHT22;21376;50.954;4.716;2022-08-19T04:11:28;16.20;99.90
35240;DHT22;21376;50.954;4.716;2022-08-19T04:13:59;16.20;99.90
35240;DHT22;21376;50.954;4.716;2022-08-19T04:16:28;16.20;99.90
35240;DHT22;21376;50.954;4.716;2022-08-19T04:18:55;16.30;99.90
35240;DHT22;21376;50.954;4.716;2022-08-19T04:21:26;16.40;99.90
35240;DHT22;21376;50.954;4.716;2022-08-19T04:23:53;16.40;99.90
35240;DHT22;21376;50.954;4.716;2022-08-19T04:26:25;16.40;99.90
35240;DHT22;21376;50.954;4.716;2022-08-19T04:28:54;16.20;99.90
35240;DHT22;21376;50.954;4.716;2022-08-19T04:31:30;16.30;99.90
35240;DHT22;21376;50.954;4.716;2022-08-19T04:34:00;16.30;99.90
35240;DHT22;21376;50.954;4.716;2022-08-19T04:36:31;16.30;99.90
35240;DHT22;21376;50.954;4.716;2022-08-19T04:39:05;16.30;99.90
35240;DHT22;21376;50.954;4.716;2022-08-19T04:44:19;16.40;99.90
35240;DHT22;21376;50.954;4.716;2022-08-19T04:46:49;16.40;99.90
35240;DHT22;21376;50.954;4.716;2022-08-19T04:49:18;16.30;99.90
35240;DHT22;21376;50.954;4.716;2022-08-19T04:51:46;16.30;99.90
35240;DHT22;21376;50.954;4.716;2022-08-19T04:54:15;16.40;99.90
35240;DHT22;21376;50.954;4.716;2022-08-19T04:56:44;16.40;99.90
35240;DHT22;21376;50.954;4.716;2022-08-19T04:59:11;16.40;99.90
35240;DHT22;21376;50.954;4.716;2022-08-19T05:01:42;16.40;99.90
35240;DHT22;21376;50.954;4.716;2022-08-19T05:04:09;16.40;99.90
35240;DHT22;21376;50.954;4.716;2022-08-19T05:06:39;16.40;99.90
35240;DHT22;21376;50.954;4.716;2022-08-19T05:09:05;16.50;99.90
35240;DHT22;21376;50.954;4.716;2022-08-19T05:11:36;16.40;99.90
35240;DHT22;21376;50.954;4.716;2022-08-19T05:14:16;16.50;99.90
35240;DHT22;21376;50.954;4.716;2022-08-19T05:16:42;16.60;99.90
35240;DHT22;21376;50.954;4.716;2022-08-19T05:19:08;16.70;99.90
35240;DHT22;21376;50.954;4.716;2022-08-19T05:21:53;16.80;99.90
35240;DHT22;21376;50.954;4.716;2022-08-19T05:24:54;17.00;99.90
35240;DHT22;21376;50.954;4.716;2022-08-19T05:27:20;17.00;99.90
35240;DHT22;21376;50.954;4.716;2022-08-19T05:29:46;17.20;99.90
35240;DHT22;21376;50.954;4.716;2022-08-19T05:32:35;17.30;99.90
35240;DHT22;21376;50.954;4.716;2022-08-19T05:35:03;17.40;99.90
35240;DHT22;21376;50.954;4.716;2022-08-19T05:37:31;17.50;99.90
35240;DHT22;21376;50.954;4.716;2022-08-19T05:39:58;17.60;99.90
35240;DHT22;21376;50.954;4.716;2022-08-19T05:42:25;17.70;99.90
35240;DHT22;21376;50.954;4.716;2022-08-19T05:44:53;17.80;99.90
35240;DHT22;21376;50.954;4.716;2022-08-19T05:47:22;18.00;99.90
35240;DHT22;21376;50.954;4.716;2022-08-19T05:49:49;18.10;99.90
35240;DHT22;21376;50.954;4.716;2022-08-19T05:52:16;18.20;99.90
35240;DHT22;21376;50.954;4.716;2022-08-19T05:54:44;18.20;99.90
35240;DHT22;21376;50.954;4.716;2022-08-19T05:57:10;18.30;99.90
35240;DHT22;21376;50.954;4.716;2022-08-19T05:59:36;18.40;99.90
35240;DHT22;21376;50.954;4.716;2022-08-19T06:02:05;18.50;99.90
35240;DHT22;21376;50.954;4.716;2022-08-19T06:04:32;18.70;99.90
35240;DHT22;21376;50.954;4.716;2022-08-19T06:06:58;18.70;99.90
35240;DHT22;21376;50.954;4.716;2022-08-19T06:09:24;19.00;99.90
35240;DHT22;21376;50.954;4.716;2022-08-19T06:11:57;19.10;99.90
35240;DHT22;21376;50.954;4.716;2022-08-19T06:14:31;19.60;99.90
35240;DHT22;21376;50.954;4.716;2022-08-19T06:16:58;19.90;99.90
35240;DHT22;21376;50.954;4.716;2022-08-19T06:19:30;20.20;99.90
35240;DHT22;21376;50.954;4.716;2022-08-19T06:21:59;20.20;99.90
35240;DHT22;21376;50.954;4.716;2022-08-19T06:24:28;20.50;99.90
35240;DHT22;21376;50.954;4.716;2022-08-19T06:26:57;20.40;99.90
35240;DHT22;21376;50.954;4.716;2022-08-19T06:29:24;20.20;99.90
35240;DHT22;21376;50.954;4.716;2022-08-19T06:31:55;20.40;99.90
35240;DHT22;21376;50.954;4.716;2022-08-19T06:34:22;20.60;99.90
35240;DHT22;21376;50.954;4.716;2022-08-19T06:36:50;21.00;99.90
35240;DHT22;21376;50.954;4.716;2022-08-19T06:39:22;21.30;99.90
35240;DHT22;21376;50.954;4.716;2022-08-19T06:41:53;21.70;99.90
35240;DHT22;21376;50.954;4.716;2022-08-19T06:44:21;22.10;99.90
35240;DHT22;21376;50.954;4.716;2022-08-19T06:46:48;22.00;99.90
35240;DHT22;21376;50.954;4.716;2022-08-19T06:49:16;22.10;99.90
35240;DHT22;21376;50.954;4.716;2022-08-19T06:51:45;22.10;99.90
35240;DHT22;21376;50.954;4.716;2022-08-19T06:54:16;22.40;99.90
35240;DHT22;21376;50.954;4.716;2022-08-19T06:56:43;22.40;99.90
35240;DHT22;21376;50.954;4.716;2022-08-19T06:59:14;22.10;99.90
35240;DHT22;21376;50.954;4.716;2022-08-19T07:01:44;21.90;99.90
35240;DHT22;21376;50.954;4.716;2022-08-19T07:04:11;22.20;99.90
35240;DHT22;21376;50.954;4.716;2022-08-19T07:06:40;22.50;99.90
35240;DHT22;21376;50.954;4.716;2022-08-19T07:09:09;22.60;99.90
35240;DHT22;21376;50.954;4.716;2022-08-19T07:11:36;22.30;99.90
35240;DHT22;21376;50.954;4.716;2022-08-19T07:14:02;23.20;99.90
35240;DHT22;21376;50.954;4.716;2022-08-19T07:16:28;26.00;99.90
35240;DHT22;21376;50.954;4.716;2022-08-19T07:18:55;27.90;99.90
35240;DHT22;21376;50.954;4.716;2022-08-19T07:21:25;29.10;99.90
35240;DHT22;21376;50.954;4.716;2022-08-19T07:23:56;29.40;99.90
35240;DHT22;21376;50.954;4.716;2022-08-19T07:26:39;31.30;99.90
35240;DHT22;21376;50.954;4.716;2022-08-19T07:29:06;32.20;98.50
35240;DHT22;21376;50.954;4.716;2022-08-19T07:31:32;34.30;95.10
35240;DHT22;21376;50.954;4.716;2022-08-19T07:34:05;34.30;92.00
35240;DHT22;21376;50.954;4.716;2022-08-19T07:36:37;32.40;94.30
35240;DHT22;21376;50.954;4.716;2022-08-19T07:39:10;31.00;95.10
35240;DHT22;21376;50.954;4.716;2022-08-19T07:41:37;29.30;98.40
35240;DHT22;21376;50.954;4.716;2022-08-19T07:44:06;28.60;99.90
35240;DHT22;21376;50.954;4.716;2022-08-19T07:46:36;27.70;99.90
35240;DHT22;21376;50.954;4.716;2022-08-19T07:49:05;26.60;99.90
35240;DHT22;21376;50.954;4.716;2022-08-19T07:51:30;26.60;99.90
35240;DHT22;21376;50.954;4.716;2022-08-19T07:54:02;29.00;99.90
35240;DHT22;21376;50.954;4.716;2022-08-19T07:56:28;30.80;99.30
35240;DHT22;21376;50.954;4.716;2022-08-19T07:58:56;31.00;98.70
35240;DHT22;21376;50.954;4.716;2022-08-19T08:01:25;30.20;99.00
35240;DHT22;21376;50.954;4.716;2022-08-19T08:03:52;29.80;98.90
35240;DHT22;21376;50.954;4.716;2022-08-19T08:06:55;28.80;99.90
35240;DHT22;21376;50.954;4.716;2022-08-19T08:09:42;30.60;99.90
35240;DHT22;21376;50.954;4.716;2022-08-19T08:12:27;33.20;94.80
35240;DHT22;21376;50.954;4.716;2022-08-19T08:15:11;33.80;94.30
35240;DHT22;21376;50.954;4.716;2022-08-19T08:17:37;32.50;94.30
35240;DHT22;21376;50.954;4.716;2022-08-19T08:20:07;31.90;94.50
35240;DHT22;21376;50.954;4.716;2022-08-19T08:22:36;31.30;95.60
35240;DHT22;21376;50.954;4.716;2022-08-19T08:25:37;31.00;96.30
35240;DHT22;21376;50.954;4.716;2022-08-19T08:28:04;30.20;97.10
35240;DHT22;21376;50.954;4.716;2022-08-19T08:30:33;30.20;98.20
35240;DHT22;21376;50.954;4.716;2022-08-19T08:33:04;30.70;97.90
35240;DHT22;21376;50.954;4.716;2022-08-19T08:35:30;33.00;95.30
35240;DHT22;21376;50.954;4.716;2022-08-19T08:37:56;33.50;92.10
35240;DHT22;21376;50.954;4.716;2022-08-19T08:43:28;31.70;94.50
35240;DHT22;21376;50.954;4.716;2022-08-19T08:46:25;31.20;94.70
35240;DHT22;21376;50.954;4.716;2022-08-19T08:52:07;30.90;95.50
35240;DHT22;21376;50.954;4.716;2022-08-19T08:54:47;29.90;96.50
35240;DHT22;21376;50.954;4.716;2022-08-19T08:57:37;30.30;97.20
35240;DHT22;21376;50.954;4.716;2022-08-19T09:00:16;30.90;95.60
35240;DHT22;21376;50.954;4.716;2022-08-19T09:02:44;30.90;95.60
35240;DHT22;21376;50.954;4.716;2022-08-19T09:05:13;30.40;96.00
35240;DHT22;21376;50.954;4.716;2022-08-19T09:10:36;29.40;98.20
35240;DHT22;21376;50.954;4.716;2022-08-19T09:15:56;29.00;99.20
35240;DHT22;21376;50.954;4.716;2022-08-19T09:18:23;29.00;99.40
35240;DHT22;21376;50.954;4.716;2022-08-19T09:20:52;28.20;99.90
35240;DHT22;21376;50.954;4.716;2022-08-19T09:23:21;28.50;99.90
35240;DHT22;21376;50.954;4.716;2022-08-19T09:26:22;29.70;99.30
35240;DHT22;21376;50.954;4.716;2022-08-19T09:28:51;29.10;99.00
35240;DHT22;21376;50.954;4.716;2022-08-19T09:31:26;28.20;99.90
35240;DHT22;21376;50.954;4.716;2022-08-19T09:34:10;27.80;99.90
35240;DHT22;21376;50.954;4.716;2022-08-19T09:36:38;27.30;99.90
35240;DHT22;21376;50.954;4.716;2022-08-19T09:39:06;27.20;99.90
35240;DHT22;21376;50.954;4.716;2022-08-19T09:41:33;26.60;99.90
35240;DHT22;21376;50.954;4.716;2022-08-19T09:44:02;26.30;99.90
35240;DHT22;21376;50.954;4.716;2022-08-19T09:46:31;26.10;99.90
35240;DHT22;21376;50.954;4.716;2022-08-19T09:49:00;26.70;99.90
35240;DHT22;21376;50.954;4.716;2022-08-19T09:51:29;26.80;99.90
35240;DHT22;21376;50.954;4.716;2022-08-19T09:54:03;27.00;99.90
35240;DHT22;21376;50.954;4.716;2022-08-19T09:56:32;27.30;99.90
35240;DHT22;21376;50.954;4.716;2022-08-19T09:59:05;27.90;99.90
35240;DHT22;21376;50.954;4.716;2022-08-19T10:01:46;28.30;99.90
35240;DHT22;21376;50.954;4.716;2022-08-19T10:04:33;28.40;99.90
35240;DHT22;21376;50.954;4.716;2022-08-19T10:07:46;27.90;99.90
35240;DHT22;21376;50.954;4.716;2022-08-19T10:10:12;27.70;99.90
35240;DHT22;21376;50.954;4.716;2022-08-19T10:12:41;27.50;99.90
35240;DHT22;21376;50.954;4.716;2022-08-19T10:15:14;27.20;99.90
35240;DHT22;21376;50.954;4.716;2022-08-19T10:17:43;27.00;99.90
35240;DHT22;21376;50.954;4.716;2022-08-19T10:20:11;27.60;99.90
35240;DHT22;21376;50.954;4.716;2022-08-19T10:22:40;28.00;99.90
35240;DHT22;21376;50.954;4.716;2022-08-19T10:25:12;28.00;99.90
35240;DHT22;21376;50.954;4.716;2022-08-19T10:27:43;28.10;99.90
35240;DHT22;21376;50.954;4.716;2022-08-19T10:30:10;27.40;99.90
35240;DHT22;21376;50.954;4.716;2022-08-19T10:32:39;27.30;99.90
35240;DHT22;21376;50.954;4.716;2022-08-19T10:35:08;27.40;99.90
35240;DHT22;21376;50.954;4.716;2022-08-19T10:37:36;27.50;99.90
35240;DHT22;21376;50.954;4.716;2022-08-19T10:40:06;27.70;99.90
35240;DHT22;21376;50.954;4.716;2022-08-19T10:42:36;28.00;99.90
35240;DHT22;21376;50.954;4.716;2022-08-19T10:45:05;29.40;99.90
35240;DHT22;21376;50.954;4.716;2022-08-19T10:47:34;30.90;99.90
35240;DHT22;21376;50.954;4.716;2022-08-19T10:50:02;31.60;98.80
35240;DHT22;21376;50.954;4.716;2022-08-19T10:52:50;32.10;98.30
35240;DHT22;21376;50.954;4.716;2022-08-19T10:55:23;31.80;97.30
35240;DHT22;21376;50.954;4.716;2022-08-19T10:58:16;31.50;98.60
35240;DHT22;21376;50.954;4.716;2022-08-19T11:01:10;31.90;97.00
35240;DHT22;21376;50.954;4.716;2022-08-19T11:03:39;32.00;97.40
35240;DHT22;21376;50.954;4.716;2022-08-19T11:06:08;30.80;98.20
35240;DHT22;21376;50.954;4.716;2022-08-19T11:08:40;31.10;99.00
35240;DHT22;21376;50.954;4.716;2022-08-19T11:11:17;31.30;97.80
35240;DHT22;21376;50.954;4.716;2022-08-19T11:13:43;31.40;97.20
35240;DHT22;21376;50.954;4.716;2022-08-19T11:16:14;31.60;96.40
35240;DHT22;21376;50.954;4.716;2022-08-19T11:18:44;31.40;96.60
35240;DHT22;21376;50.954;4.716;2022-08-19T11:21:18;31.20;97.00
35240;DHT22;21376;50.954;4.716;2022-08-19T11:23:48;30.40;97.90
35240;DHT22;21376;50.954;4.716;2022-08-19T11:26:19;29.80;99.40
35240;DHT22;21376;50.954;4.716;2022-08-19T11:28:48;29.80;98.60
35240;DHT22;21376;50.954;4.716;2022-08-19T11:31:23;29.60;98.60
35240;DHT22;21376;50.954;4.716;2022-08-19T11:36:59;29.40;99.40
35240;DHT22;21376;50.954;4.716;2022-08-19T11:39:30;29.20;99.90
35240;DHT22;21376;50.954;4.716;2022-08-19T11:42:04;29.20;99.90
35240;DHT22;21376;50.954;4.716;2022-08-19T11:44:54;29.40;99.90
35240;DHT22;21376;50.954;4.716;2022-08-19T11:47:23;29.20;99.90
35240;DHT22;21376;50.954;4.716;2022-08-19T11:49:52;28.60;99.90
35240;DHT22;21376;50.954;4.716;2022-08-19T11:52:19;28.50;99.90
35240;DHT22;21376;50.954;4.716;2022-08-19T11:54:48;28.00;99.90
35240;DHT22;21376;50.954;4.716;2022-08-19T11:57:17;27.50;99.90
35240;DHT22;21376;50.954;4.716;2022-08-19T11:59:49;27.40;99.90
35240;DHT22;21376;50.954;4.716;2022-08-19T12:02:19;27.20;99.90
35240;DHT22;21376;50.954;4.716;2022-08-19T12:05:01;27.20;99.90
35240;DHT22;21376;50.954;4.716;2022-08-19T12:07:35;26.80;99.90
35240;DHT22;21376;50.954;4.716;2022-08-19T12:10:04;26.50;99.90
35240;DHT22;21376;50.954;4.716;2022-08-19T12:12:40;26.50;99.90
35240;DHT22;21376;50.954;4.716;2022-08-19T12:15:14;26.20;99.90
35240;DHT22;21376;50.954;4.716;2022-08-19T12:17:43;26.10;99.90
35240;DHT22;21376;50.954;4.716;2022-08-19T12:20:10;26.00;99.90
35240;DHT22;21376;50.954;4.716;2022-08-19T12:22:39;26.00;99.90
35240;DHT22;21376;50.954;4.716;2022-08-19T12:25:11;26.20;99.90
35240;DHT22;21376;50.954;4.716;2022-08-19T12:27:38;27.00;99.90
35240;DHT22;21376;50.954;4.716;2022-08-19T12:30:07;28.20;99.90
35240;DHT22;21376;50.954;4.716;2022-08-19T12:32:37;28.20;99.90
35240;DHT22;21376;50.954;4.716;2022-08-19T12:35:04;28.60;99.90
35240;DHT22;21376;50.954;4.716;2022-08-19T12:37:33;29.50;99.90
35240;DHT22;21376;50.954;4.716;2022-08-19T12:39:59;30.20;99.90
35240;DHT22;21376;50.954;4.716;2022-08-19T12:42:28;30.00;99.90
35240;DHT22;21376;50.954;4.716;2022-08-19T12:44:56;29.80;99.90
35240;DHT22;21376;50.954;4.716;2022-08-19T12:47:22;28.40;99.90
35240;DHT22;21376;50.954;4.716;2022-08-19T12:49:50;28.40;99.90
35240;DHT22;21376;50.954;4.716;2022-08-19T12:52:16;28.40;99.90
35240;DHT22;21376;50.954;4.716;2022-08-19T12:54:42;28.50;99.90
35240;DHT22;21376;50.954;4.716;2022-08-19T12:57:10;29.10;99.90
35240;DHT22;21376;50.954;4.716;2022-08-19T13:00:09;29.70;99.90
35240;DHT22;21376;50.954;4.716;2022-08-19T13:02:55;30.20;99.90
35240;DHT22;21376;50.954;4.716;2022-08-19T13:05:26;30.20;99.90
35240;DHT22;21376;50.954;4.716;2022-08-19T13:08:06;30.10;99.90
35240;DHT22;21376;50.954;4.716;2022-08-19T13:10:38;31.00;99.90
35240;DHT22;21376;50.954;4.716;2022-08-19T13:30:03;30.00;99.90
35240;DHT22;21376;50.954;4.716;2022-08-19T13:32:58;29.70;99.90
35240;DHT22;21376;50.954;4.716;2022-08-19T13:35:57;29.40;99.90
35240;DHT22;21376;50.954;4.716;2022-08-19T13:38:27;30.00;99.90
35240;DHT22;21376;50.954;4.716;2022-08-19T13:41:05;31.10;98.20
35240;DHT22;21376;50.954;4.716;2022-08-19T13:43:36;30.70;97.90
35240;DHT22;21376;50.954;4.716;2022-08-19T13:46:09;30.20;98.60
35240;DHT22;21376;50.954;4.716;2022-08-19T13:48:44;29.40;99.90
35240;DHT22;21376;50.954;4.716;2022-08-19T13:51:18;29.30;99.90
35240;DHT22;21376;50.954;4.716;2022-08-19T13:53:47;28.90;99.90
35240;DHT22;21376;50.954;4.716;2022-08-19T13:56:16;29.20;99.90
35240;DHT22;21376;50.954;4.716;2022-08-19T13:58:43;29.80;99.90
35240;DHT22;21376;50.954;4.716;2022-08-19T14:01:12;29.70;99.90
35240;DHT22;21376;50.954;4.716;2022-08-19T14:03:50;30.30;99.90
35240;DHT22;21376;50.954;4.716;2022-08-19T14:06:17;29.60;99.80
35240;DHT22;21376;50.954;4.716;2022-08-19T14:08:46;29.30;99.90
35240;DHT22;21376;50.954;4.716;2022-08-19T14:11:15;29.30;99.90
35240;DHT22;21376;50.954;4.716;2022-08-19T14:13:44;29.30;99.90
35240;DHT22;21376;50.954;4.716;2022-08-19T14:16:12;29.10;99.90
35240;DHT22;21376;50.954;4.716;2022-08-19T14:18:40;29.40;99.90
35240;DHT22;21376;50.954;4.716;2022-08-19T14:21:21;29.20;99.90
35240;DHT22;21376;50.954;4.716;2022-08-19T14:23:51;29.30;99.90
35240;DHT22;21376;50.954;4.716;2022-08-19T14:26:19;29.30;99.90
35240;DHT22;21376;50.954;4.716;2022-08-19T14:28:45;29.10;99.90
35240;DHT22;21376;50.954;4.716;2022-08-19T14:31:13;29.30;99.90
35240;DHT22;21376;50.954;4.716;2022-08-19T14:33:47;29.00;99.90
35240;DHT22;21376;50.954;4.716;2022-08-19T14:36:13;28.90;99.90
35240;DHT22;21376;50.954;4.716;2022-08-19T14:38:42;28.50;99.90
35240;DHT22;21376;50.954;4.716;2022-08-19T14:41:13;28.20;99.90
35240;DHT22;21376;50.954;4.716;2022-08-19T14:43:42;28.40;99.90
35240;DHT22;21376;50.954;4.716;2022-08-19T14:46:08;28.40;99.90
35240;DHT22;21376;50.954;4.716;2022-08-19T14:48:36;28.00;99.90
35240;DHT22;21376;50.954;4.716;2022-08-19T14:51:06;28.00;99.90
35240;DHT22;21376;50.954;4.716;2022-08-19T14:53:32;27.80;99.90
35240;DHT22;21376;50.954;4.716;2022-08-19T14:56:15;27.50;99.90
35240;DHT22;21376;50.954;4.716;2022-08-19T14:58:44;27.50;99.90
35240;DHT22;21376;50.954;4.716;2022-08-19T15:01:11;27.50;99.90
35240;DHT22;21376;50.954;4.716;2022-08-19T15:03:37;27.40;99.90
35240;DHT22;21376;50.954;4.716;2022-08-19T15:06:04;27.10;99.90
35240;DHT22;21376;50.954;4.716;2022-08-19T15:08:37;26.80;99.90
35240;DHT22;21376;50.954;4.716;2022-08-19T15:11:12;26.50;99.90
35240;DHT22;21376;50.954;4.716;2022-08-19T15:13:41;26.00;99.90
35240;DHT22;21376;50.954;4.716;2022-08-19T15:16:11;25.90;99.90
35240;DHT22;21376;50.954;4.716;2022-08-19T15:18:37;25.90;99.90
35240;DHT22;21376;50.954;4.716;2022-08-19T15:21:03;25.70;99.90
35240;DHT22;21376;50.954;4.716;2022-08-19T15:23:29;25.70;99.90
35240;DHT22;21376;50.954;4.716;2022-08-19T15:25:57;25.50;99.90
35240;DHT22;21376;50.954;4.716;2022-08-19T15:28:26;25.70;99.90
35240;DHT22;21376;50.954;4.716;2022-08-19T15:30:52;26.00;99.90
35240;DHT22;21376;50.954;4.716;2022-08-19T15:33:19;25.90;99.90
35240;DHT22;21376;50.954;4.716;2022-08-19T15:35:47;26.20;99.90
35240;DHT22;21376;50.954;4.716;2022-08-19T15:38:15;26.00;99.90
35240;DHT22;21376;50.954;4.716;2022-08-19T15:40:42;25.70;99.90
35240;DHT22;21376;50.954;4.716;2022-08-19T15:43:11;25.60;99.90
35240;DHT22;21376;50.954;4.716;2022-08-19T15:48:43;25.60;99.90
35240;DHT22;21376;50.954;4.716;2022-08-19T15:51:09;25.50;99.90
35240;DHT22;21376;50.954;4.716;2022-08-19T15:53:39;25.80;99.90
35240;DHT22;21376;50.954;4.716;2022-08-19T15:56:07;25.90;99.90
35240;DHT22;21376;50.954;4.716;2022-08-19T15:58:33;25.90;99.90
35240;DHT22;21376;50.954;4.716;2022-08-19T16:01:19;26.10;99.90
35240;DHT22;21376;50.954;4.716;2022-08-19T16:03:59;26.50;99.90
35240;DHT22;21376;50.954;4.716;2022-08-19T16:09:12;26.60;99.90
35240;DHT22;21376;50.954;4.716;2022-08-19T16:11:39;26.70;99.90
35240;DHT22;21376;50.954;4.716;2022-08-19T16:14:07;26.90;99.90
35240;DHT22;21376;50.954;4.716;2022-08-19T16:16:37;26.80;99.90
35240;DHT22;21376;50.954;4.716;2022-08-19T16:19:07;26.80;99.90
35240;DHT22;21376;50.954;4.716;2022-08-19T16:21:36;26.60;99.90
35240;DHT22;21376;50.954;4.716;2022-08-19T16:24:06;26.20;99.90
35240;DHT22;21376;50.954;4.716;2022-08-19T16:26:34;25.70;99.90
35240;DHT22;21376;50.954;4.716;2022-08-19T16:29:03;25.50;99.90
35240;DHT22;21376;50.954;4.716;2022-08-19T16:31:31;25.30;99.90
35240;DHT22;21376;50.954;4.716;2022-08-19T16:33:59;25.20;99.90